EDDS/STR METAR and TAF weather

Enter ICAO airport designator
Station Type Date Time Source
EDDS METAR 2018/04/21 20:50 UTC NOAA

EDDS 212050Z 28003KT CAVOK 17/09 Q1018


Station Type Date Time Source
EDDS Decoded METAR 2018/04/21 20:50 UTC NOAA

Stuttgart-Echterdingen, Germany (EDDS) 48-41N 009-13E 391M
Apr 21, 2018 - 04:50 PM EDT / 2018.04.21 2050 UTC
Wind: from the W (280 degrees) at 3 MPH (3 KT):0
Visibility: greater than 7 mile(s):0
Temperature: 62 F (17 C)
Dew Point: 48 F (9 C)
Relative Humidity: 59%
Pressure (altimeter): 30.06 in. Hg (1018 hPa)
ob: EDDS 212050Z 28003KT CAVOK 17/09 Q1018
cycle: 21

Station Type Date Time Source
EDDS TAF 2018/04/21 18:27 UTC NOAA

TAF EDDS 211700Z 2118/2218 36006KT CAVOK
BECMG 2118/2120 VRB02KT
BECMG 2208/2210 24006KT


Example: see airport list